createdAt,value
2019-05-18T00:01:39.231Z,21.20
2019-05-18T00:04:10.886Z,22.40
2019-05-18T00:06:42.545Z,21.20
2019-05-18T00:09:14.265Z,21.20
2019-05-18T00:11:46.125Z,22.20
2019-05-18T00:14:18.026Z,22.80
2019-05-18T00:16:50.196Z,19.20
2019-05-18T00:19:21.446Z,25.00
2019-05-18T00:21:53.061Z,23.60
2019-05-18T00:24:24.771Z,23.60
2019-05-18T00:26:56.437Z,23.40
2019-05-18T00:29:28.042Z,23.60
2019-05-18T00:31:59.854Z,23.20
2019-05-18T00:34:31.499Z,22.20
2019-05-18T00:37:03.086Z,21.20
2019-05-18T00:39:35.028Z,22.20
2019-05-18T00:42:06.980Z,22.00
2019-05-18T00:44:38.742Z,20.60
2019-05-18T00:47:11.113Z,22.80
2019-05-18T00:49:42.990Z,21.40
2019-05-18T00:52:14.695Z,31.20
2019-05-18T00:54:46.489Z,28.40
2019-05-18T00:57:18.065Z,30.40
2019-05-18T00:59:52.571Z,29.40
2019-05-18T01:02:24.425Z,25.80
2019-05-18T01:04:55.906Z,25.60
2019-05-18T01:07:27.520Z,22.80
2019-05-18T01:09:59.308Z,26.00
2019-05-18T01:12:30.820Z,26.20
2019-05-18T01:15:02.463Z,25.00
2019-05-18T01:17:35.615Z,25.20
2019-05-18T01:20:08.007Z,24.20
2019-05-18T01:22:39.759Z,23.00
2019-05-18T01:25:11.609Z,25.60
2019-05-18T01:27:43.517Z,23.60
2019-05-18T01:30:16.323Z,25.80
2019-05-18T01:32:47.790Z,24.00
2019-05-18T01:35:20.805Z,23.20
2019-05-18T01:37:52.084Z,23.20
2019-05-18T01:40:23.719Z,23.60
2019-05-18T01:42:55.467Z,24.40
2019-05-18T01:45:27.096Z,23.40
2019-05-18T01:48:12.584Z,24.00
2019-05-18T01:50:32.668Z,23.00
2019-05-18T01:53:04.494Z,19.40
2019-05-18T01:55:36.260Z,21.20
2019-05-18T01:58:09.278Z,16.00
2019-05-18T02:00:41.301Z,16.60
2019-05-18T02:03:14.067Z,15.20
2019-05-18T02:05:45.989Z,19.40
2019-05-18T02:08:17.314Z,17.20
2019-05-18T02:10:48.987Z,15.40
2019-05-18T02:13:21.860Z,17.40
2019-05-18T02:15:53.548Z,17.20
2019-05-18T02:18:29.104Z,19.20
2019-05-18T02:20:59.324Z,19.00
2019-05-18T02:23:31.072Z,16.00
2019-05-18T02:26:02.434Z,15.80
2019-05-18T02:28:34.545Z,12.40
2019-05-18T02:31:06.441Z,15.80
2019-05-18T02:33:38.116Z,16.20
2019-05-18T02:36:09.808Z,16.20
2019-05-18T02:38:41.536Z,13.20
2019-05-18T02:41:13.130Z,12.40
2019-05-18T02:43:44.920Z,14.80
2019-05-18T02:46:16.589Z,13.80
2019-05-18T02:48:50.663Z,14.80
2019-05-18T02:51:21.899Z,14.80
2019-05-18T02:53:53.492Z,14.60
2019-05-18T02:56:25.054Z,12.00
2019-05-18T02:58:56.638Z,13.60
2019-05-18T03:01:28.450Z,14.00
2019-05-18T03:04:00.389Z,17.60
2019-05-18T03:06:32.119Z,12.00
2019-05-18T03:09:05.452Z,14.80
2019-05-18T03:11:37.547Z,13.20
2019-05-18T03:14:12.364Z,14.00
2019-05-18T03:16:43.831Z,11.60
2019-05-18T03:19:15.592Z,13.40
2019-05-18T03:21:47.341Z,10.80
2019-05-18T03:24:19.129Z,9.60
2019-05-18T03:26:50.737Z,12.20
2019-05-18T03:29:22.593Z,11.00
2019-05-18T03:31:54.385Z,9.80
2019-05-18T03:34:25.796Z,10.60
2019-05-18T03:36:57.227Z,9.60
2019-05-18T03:39:29.321Z,10.80
2019-05-18T03:42:01.033Z,10.00
2019-05-18T03:44:33.026Z,11.60
2019-05-18T03:47:04.297Z,8.00
2019-05-18T03:49:38.943Z,8.40
2019-05-18T03:52:10.536Z,11.00
2019-05-18T03:54:42.498Z,9.60
2019-05-18T03:57:14.075Z,8.80
2019-05-18T03:59:47.419Z,11.00
2019-05-18T04:02:19.324Z,9.80
2019-05-18T04:04:51.501Z,11.20
2019-05-18T04:07:23.230Z,9.80
2019-05-18T04:09:55.174Z,10.60
2019-05-18T04:12:27.131Z,10.00
2019-05-18T04:14:58.736Z,9.00
2019-05-18T04:17:30.523Z,8.00
2019-05-18T04:20:03.845Z,12.60
2019-05-18T04:22:35.598Z,10.00
2019-05-18T04:25:08.343Z,5.40
2019-05-18T04:27:40.087Z,10.40
2019-05-18T04:30:12.021Z,11.80
2019-05-18T04:32:43.886Z,10.60
2019-05-18T04:35:16.023Z,9.40
2019-05-18T04:37:47.784Z,12.20
2019-05-18T04:40:19.829Z,10.20
2019-05-18T04:42:51.801Z,11.80
2019-05-18T04:45:23.574Z,9.00
2019-05-18T04:47:55.300Z,11.80
2019-05-18T04:50:27.389Z,11.60
2019-05-18T04:52:59.986Z,11.00
2019-05-18T04:55:31.210Z,10.60
2019-05-18T04:58:03.013Z,7.20
2019-05-18T05:00:34.375Z,12.00
2019-05-18T05:03:07.619Z,12.40
2019-05-18T05:05:39.215Z,10.40
2019-05-18T05:08:11.124Z,8.60
2019-05-18T05:10:42.649Z,15.20
2019-05-18T05:13:14.131Z,10.00
2019-05-18T05:15:46.995Z,11.20
2019-05-18T05:18:19.172Z,11.40
2019-05-18T05:20:51.247Z,12.00
2019-05-18T05:23:22.850Z,12.60
2019-05-18T05:25:54.530Z,13.60
2019-05-18T05:28:26.140Z,10.00
2019-05-18T05:30:57.788Z,11.60
2019-05-18T05:33:29.333Z,11.20
2019-05-18T05:36:00.886Z,12.40
2019-05-18T05:38:32.451Z,12.00
2019-05-18T05:41:05.041Z,15.80
2019-05-18T05:43:36.551Z,7.40
2019-05-18T05:46:08.124Z,14.80
2019-05-18T05:48:40.650Z,14.20
2019-05-18T05:51:12.390Z,15.00
2019-05-18T05:53:43.891Z,12.00
2019-05-18T05:56:15.533Z,13.40
2019-05-18T05:58:46.872Z,14.60
2019-05-18T06:01:18.802Z,15.40
2019-05-18T06:03:50.895Z,12.00
2019-05-18T06:06:23.176Z,12.40
2019-05-18T06:08:55.225Z,13.80
2019-05-18T06:11:27.019Z,14.80
2019-05-18T06:13:58.879Z,11.40
2019-05-18T06:16:30.254Z,12.80
2019-05-18T06:19:01.979Z,13.40
2019-05-18T06:21:34.011Z,11.60
2019-05-18T06:24:05.774Z,13.20
2019-05-18T06:26:37.686Z,13.40
2019-05-18T06:29:09.320Z,13.00
2019-05-18T06:31:40.910Z,11.80
2019-05-18T06:34:13.149Z,14.20
2019-05-18T06:36:45.233Z,11.60
2019-05-18T06:39:16.773Z,13.20
2019-05-18T06:41:48.501Z,13.00
2019-05-18T06:44:20.198Z,13.60
2019-05-18T06:46:51.974Z,12.40
2019-05-18T06:49:23.823Z,13.80
2019-05-18T06:51:56.018Z,11.00
2019-05-18T06:54:27.640Z,13.20
2019-05-18T06:57:00.171Z,14.00
2019-05-18T06:59:32.490Z,12.40
2019-05-18T07:02:03.833Z,12.40
2019-05-18T07:04:36.209Z,9.80
2019-05-18T07:07:07.884Z,14.40
2019-05-18T07:09:39.511Z,13.00
2019-05-18T07:12:11.252Z,13.40
2019-05-18T07:14:43.081Z,14.00
2019-05-18T07:17:14.781Z,12.00
2019-05-18T07:19:47.027Z,11.40
2019-05-18T07:22:19.097Z,11.80
2019-05-18T07:24:50.540Z,12.00
2019-05-18T07:27:22.264Z,11.20
2019-05-18T07:29:54.025Z,11.40
2019-05-18T07:32:25.594Z,9.80
2019-05-18T07:34:57.144Z,14.80
2019-05-18T07:37:28.965Z,11.20
2019-05-18T07:40:00.920Z,13.00
2019-05-18T07:42:32.661Z,14.00
2019-05-18T07:45:12.558Z,13.00
2019-05-18T07:47:44.651Z,13.40
2019-05-18T07:50:17.386Z,13.20
2019-05-18T07:52:49.187Z,12.00
2019-05-18T07:55:20.759Z,13.00
2019-05-18T07:57:52.976Z,14.80
2019-05-18T08:00:24.712Z,9.60
2019-05-18T08:02:56.465Z,12.80
2019-05-18T08:05:29.018Z,14.00
2019-05-18T08:08:01.780Z,13.40
2019-05-18T08:10:43.748Z,12.00
2019-05-18T08:13:15.877Z,13.20
2019-05-18T08:15:47.668Z,11.60
2019-05-18T08:18:19.360Z,20.40
2019-05-18T08:20:51.140Z,17.00
2019-05-18T08:23:23.253Z,14.00
2019-05-18T08:25:54.802Z,14.00
2019-05-18T08:28:26.566Z,15.00
2019-05-18T08:30:58.398Z,16.40
2019-05-18T08:33:31.098Z,16.00
2019-05-18T08:36:02.696Z,16.00
2019-05-18T08:38:33.962Z,17.60
2019-05-18T08:41:05.667Z,12.40
2019-05-18T08:43:38.375Z,16.60
2019-05-18T08:46:09.902Z,18.80
2019-05-18T08:48:44.396Z,18.20
2019-05-18T08:51:15.856Z,19.40
2019-05-18T08:53:47.510Z,20.20
2019-05-18T08:56:19.176Z,14.40
2019-05-18T08:58:50.696Z,16.40
2019-05-18T09:01:21.976Z,18.00
2019-05-18T09:03:53.601Z,19.60
2019-05-18T09:06:25.378Z,18.80
2019-05-18T09:08:57.290Z,17.60
2019-05-18T09:11:28.683Z,16.40
2019-05-18T09:14:00.532Z,16.40
2019-05-18T09:16:31.749Z,16.20
2019-05-18T09:19:03.269Z,16.60
2019-05-18T09:21:34.529Z,17.60
2019-05-18T09:24:06.944Z,16.80
2019-05-18T09:26:38.746Z,17.80
2019-05-18T09:29:10.404Z,15.40
2019-05-18T09:31:41.869Z,16.00
2019-05-18T09:34:13.444Z,15.80
2019-05-18T09:36:45.010Z,16.00
2019-05-18T09:39:17.031Z,13.80
2019-05-18T09:41:48.633Z,13.80
2019-05-18T09:44:20.082Z,14.00
2019-05-18T09:46:51.854Z,14.40
2019-05-18T09:49:23.619Z,14.60
2019-05-18T09:51:55.165Z,13.40
2019-05-18T09:54:27.333Z,12.40
2019-05-18T09:56:59.091Z,16.80
2019-05-18T09:59:33.558Z,13.00
2019-05-18T10:02:05.397Z,17.40
2019-05-18T10:04:37.020Z,15.00
2019-05-18T10:07:08.898Z,17.00
2019-05-18T10:09:40.387Z,15.80
2019-05-18T10:12:11.869Z,16.00
2019-05-18T10:14:43.955Z,16.20
2019-05-18T10:17:15.191Z,11.80
2019-05-18T10:19:46.658Z,18.40
2019-05-18T10:22:18.407Z,16.60
2019-05-18T10:24:50.468Z,18.00
2019-05-18T10:27:22.319Z,16.00
2019-05-18T10:29:53.923Z,17.60
2019-05-18T10:32:25.378Z,20.00
2019-05-18T10:34:58.423Z,18.80
2019-05-18T10:37:29.669Z,19.00
2019-05-18T10:40:01.323Z,17.60
2019-05-18T10:42:33.305Z,16.60
2019-05-18T10:45:05.241Z,18.20
2019-05-18T10:47:36.551Z,22.00
2019-05-18T10:50:08.989Z,20.80
2019-05-18T10:52:40.313Z,19.80
2019-05-18T10:55:12.478Z,20.00
2019-05-18T10:57:44.141Z,20.00
2019-05-18T11:00:15.954Z,17.60
2019-05-18T11:02:47.765Z,21.80
2019-05-18T11:05:19.592Z,18.40
2019-05-18T11:07:52.041Z,20.00
2019-05-18T11:10:23.715Z,18.60
2019-05-18T11:12:55.448Z,15.80
2019-05-18T11:15:27.024Z,19.60
2019-05-18T11:17:58.397Z,19.80
2019-05-18T11:20:29.988Z,20.60
2019-05-18T11:23:01.455Z,21.20
2019-05-18T11:25:32.960Z,20.40
2019-05-18T11:28:05.561Z,20.60
2019-05-18T11:30:37.096Z,21.60
2019-05-18T11:33:08.569Z,18.80
2019-05-18T11:36:01.281Z,20.00
2019-05-18T11:38:32.963Z,20.00
2019-05-18T11:41:04.762Z,19.60
2019-05-18T11:43:38.645Z,21.00
2019-05-18T11:46:10.479Z,21.80
2019-05-18T11:48:41.982Z,22.00
2019-05-18T11:51:13.389Z,18.40
2019-05-18T11:53:57.513Z,21.00
2019-05-18T11:56:18.661Z,19.00
2019-05-18T11:58:50.724Z,21.00
2019-05-18T12:01:22.410Z,20.00
2019-05-18T12:03:53.961Z,20.40
2019-05-18T12:06:25.673Z,18.60
2019-05-18T12:08:58.697Z,19.60
2019-05-18T12:11:30.452Z,17.60
2019-05-18T12:14:01.948Z,20.00
2019-05-18T12:16:33.861Z,20.00
2019-05-18T12:19:05.226Z,17.60
2019-05-18T12:21:38.448Z,16.60
2019-05-18T12:24:15.461Z,19.80
2019-05-18T12:26:43.857Z,20.20
2019-05-18T12:29:15.443Z,20.00
2019-05-18T12:31:47.098Z,19.40
2019-05-18T12:34:18.602Z,18.80
2019-05-18T12:36:50.049Z,20.60
2019-05-18T12:39:21.311Z,20.20
2019-05-18T12:41:52.754Z,24.00
2019-05-18T12:44:24.256Z,20.60
2019-05-18T12:46:55.927Z,20.00
2019-05-18T12:49:27.799Z,20.80
2019-05-18T12:51:59.223Z,19.80
2019-05-18T12:54:45.323Z,18.80
2019-05-18T12:57:04.369Z,17.40
2019-05-18T12:59:36.045Z,17.80
2019-05-18T13:02:07.600Z,19.80
2019-05-18T13:04:41.746Z,20.00
2019-05-18T13:07:12.110Z,19.40
2019-05-18T13:09:43.873Z,20.00
2019-05-18T13:12:15.338Z,15.00
2019-05-18T13:14:46.524Z,18.60
2019-05-18T13:17:21.188Z,19.40
2019-05-18T13:19:51.710Z,18.20
2019-05-18T13:22:23.299Z,20.20
2019-05-18T13:24:54.779Z,19.00
2019-05-18T13:27:38.679Z,19.00
2019-05-18T13:30:01.389Z,19.40
2019-05-18T13:32:32.986Z,18.60
2019-05-18T13:35:06.032Z,19.20
2019-05-18T13:37:37.734Z,20.00
2019-05-18T13:40:09.855Z,20.60
2019-05-18T13:42:41.331Z,20.20
2019-05-18T13:45:14.644Z,20.40
2019-05-18T13:47:46.118Z,21.00
2019-05-18T13:50:19.039Z,21.20
2019-05-18T13:52:50.484Z,19.40
2019-05-18T13:55:22.054Z,20.20
2019-05-18T13:57:54.045Z,20.40
2019-05-18T14:00:25.646Z,21.00
2019-05-18T14:02:57.357Z,17.80
2019-05-18T14:05:28.763Z,20.40
2019-05-18T14:08:00.252Z,21.00
2019-05-18T14:10:31.728Z,22.20
2019-05-18T14:13:05.598Z,20.00
2019-05-18T14:15:37.612Z,22.20
2019-05-18T14:18:09.098Z,19.40
2019-05-18T14:20:40.814Z,20.00
2019-05-18T14:23:12.583Z,20.20
2019-05-18T14:26:04.225Z,20.60
2019-05-18T14:28:35.963Z,20.40
2019-05-18T14:31:07.661Z,20.00
2019-05-18T14:33:39.291Z,20.40
2019-05-18T14:36:11.219Z,21.80
2019-05-18T14:38:42.810Z,22.20
2019-05-18T14:41:14.116Z,22.40
2019-05-18T14:43:45.443Z,21.40
2019-05-18T14:46:16.804Z,20.40
2019-05-18T14:48:48.154Z,21.20
2019-05-18T14:51:19.988Z,22.60
2019-05-18T14:53:51.714Z,22.40
2019-05-18T14:56:23.379Z,23.00
2019-05-18T14:58:54.766Z,22.00
2019-05-18T15:01:26.692Z,21.20
2019-05-18T15:03:58.537Z,22.80
2019-05-18T15:06:30.632Z,23.40
2019-05-18T15:09:02.026Z,23.20
2019-05-18T15:11:33.915Z,25.40
2019-05-18T15:14:05.506Z,21.60
2019-05-18T15:16:37.272Z,24.00
2019-05-18T15:19:09.078Z,23.20
2019-05-18T15:21:40.843Z,23.80
2019-05-18T15:24:12.589Z,23.80
2019-05-18T15:26:44.365Z,23.40
2019-05-18T15:29:16.328Z,25.80
2019-05-18T15:31:47.924Z,23.60
2019-05-18T15:34:19.342Z,21.40
2019-05-18T15:36:52.459Z,25.80
2019-05-18T15:39:23.931Z,26.20
2019-05-18T15:41:55.288Z,26.00
2019-05-18T15:44:28.240Z,26.80
2019-05-18T15:46:59.696Z,26.20
2019-05-18T15:49:31.456Z,26.20
2019-05-18T15:52:03.108Z,25.20
2019-05-18T15:54:36.168Z,26.80
2019-05-18T15:57:09.290Z,27.40
2019-05-18T15:59:42.942Z,26.40
2019-05-18T16:02:16.969Z,26.80
2019-05-18T16:04:49.609Z,26.40
2019-05-18T16:07:21.474Z,26.80
2019-05-18T16:09:53.399Z,23.60
2019-05-18T16:12:24.992Z,27.60
2019-05-18T16:14:56.710Z,26.80
2019-05-18T16:17:38.906Z,27.20
2019-05-18T16:20:01.798Z,28.80
2019-05-18T16:22:33.413Z,28.80
2019-05-18T16:25:05.265Z,26.40
2019-05-18T16:27:38.896Z,25.60
2019-05-18T16:30:11.712Z,25.40
2019-05-18T16:32:43.258Z,27.40
2019-05-18T16:35:14.945Z,26.00
2019-05-18T16:37:46.907Z,28.00
2019-05-18T16:40:18.474Z,27.00
2019-05-18T16:42:50.188Z,27.60
2019-05-18T16:45:21.979Z,27.20
2019-05-18T16:47:53.612Z,26.20
2019-05-18T16:50:25.357Z,25.80
2019-05-18T16:53:00.661Z,27.80
2019-05-18T16:55:32.293Z,27.60
2019-05-18T16:58:03.772Z,26.80
2019-05-18T17:00:35.768Z,27.20
2019-05-18T17:03:07.633Z,28.00
2019-05-18T17:05:39.980Z,28.20
2019-05-18T17:08:11.510Z,27.60
2019-05-18T17:10:43.133Z,28.80
2019-05-18T17:13:15.013Z,27.60
2019-05-18T17:15:47.002Z,28.60
2019-05-18T17:18:18.843Z,27.20
2019-05-18T17:20:51.273Z,28.40
2019-05-18T17:23:22.752Z,27.40
2019-05-18T17:25:54.537Z,26.40
2019-05-18T17:28:25.895Z,26.20
2019-05-18T17:30:57.675Z,26.80
2019-05-18T17:33:29.229Z,26.60
2019-05-18T17:36:01.043Z,28.00
2019-05-18T17:38:32.483Z,27.60
2019-05-18T17:41:04.449Z,26.40
2019-05-18T17:43:35.825Z,28.00
2019-05-18T17:46:07.555Z,27.80
2019-05-18T17:48:39.262Z,27.20
2019-05-18T17:51:11.142Z,26.60
2019-05-18T17:53:45.673Z,28.00
2019-05-18T17:56:18.905Z,27.00
2019-05-18T17:58:50.733Z,27.40
2019-05-18T18:01:22.455Z,28.20
2019-05-18T18:03:54.077Z,27.20
2019-05-18T18:06:25.765Z,29.40
2019-05-18T18:08:57.638Z,27.80
2019-05-18T18:11:29.512Z,28.00
2019-05-18T18:14:01.247Z,28.00
2019-05-18T18:16:33.282Z,28.20
2019-05-18T18:19:05.082Z,28.60
2019-05-18T18:21:37.156Z,28.20
2019-05-18T18:24:09.471Z,29.20
2019-05-18T18:26:41.490Z,28.00
2019-05-18T18:29:12.973Z,27.20
2019-05-18T18:31:44.875Z,28.20
2019-05-18T18:34:16.296Z,28.20
2019-05-18T18:36:48.512Z,28.40
2019-05-18T18:39:19.813Z,28.60
2019-05-18T18:41:51.293Z,28.20
2019-05-18T18:44:23.068Z,28.20
2019-05-18T18:46:55.171Z,27.80
2019-05-18T18:49:26.796Z,28.00
2019-05-18T18:51:58.615Z,27.40
2019-05-18T18:54:30.231Z,29.20
2019-05-18T18:57:01.782Z,29.80
2019-05-18T18:59:33.554Z,29.80
2019-05-18T19:02:06.009Z,28.20
2019-05-18T19:04:37.281Z,27.60
2019-05-18T19:07:09.296Z,30.20
2019-05-18T19:09:40.584Z,27.60
2019-05-18T19:12:12.479Z,29.60
2019-05-18T19:14:44.208Z,31.80
2019-05-18T19:17:15.935Z,30.40
2019-05-18T19:19:47.640Z,31.00
2019-05-18T19:22:18.958Z,28.80
2019-05-18T19:24:51.058Z,28.20
2019-05-18T19:27:22.548Z,29.60
2019-05-18T19:29:53.913Z,28.60
2019-05-18T19:32:25.976Z,30.80
2019-05-18T19:34:57.598Z,28.20
2019-05-18T19:37:29.052Z,30.00
2019-05-18T19:40:00.796Z,30.00
2019-05-18T19:42:32.151Z,29.40
2019-05-18T19:45:03.898Z,31.20
2019-05-18T19:47:35.650Z,29.80
2019-05-18T19:50:07.537Z,26.80
2019-05-18T19:52:39.771Z,29.80
2019-05-18T19:55:11.426Z,28.40
2019-05-18T19:57:42.855Z,29.60
2019-05-18T20:00:14.711Z,27.80
2019-05-18T20:02:47.046Z,28.40
2019-05-18T20:05:19.007Z,30.60
2019-05-18T20:07:51.143Z,28.40
2019-05-18T20:10:22.697Z,29.40
2019-05-18T20:12:54.385Z,32.20
2019-05-18T20:15:26.033Z,29.20
2019-05-18T20:17:57.378Z,32.00
2019-05-18T20:20:28.952Z,30.60
2019-05-18T20:23:00.689Z,29.80
2019-05-18T20:25:32.359Z,31.60
2019-05-18T20:28:04.246Z,32.20
2019-05-18T20:30:35.927Z,32.00
2019-05-18T20:33:08.149Z,32.40
2019-05-18T20:35:40.099Z,31.60
2019-05-18T20:38:11.961Z,33.20
2019-05-18T20:40:43.420Z,32.40
2019-05-18T20:43:15.175Z,31.20
2019-05-18T20:45:46.701Z,33.00
2019-05-18T20:48:18.718Z,30.20
2019-05-18T20:50:50.268Z,32.80
2019-05-18T20:53:22.189Z,31.20
2019-05-18T20:55:53.580Z,31.20
2019-05-18T20:58:38.713Z,32.00
2019-05-18T21:00:58.345Z,31.80
2019-05-18T21:03:30.366Z,32.40
2019-05-18T21:06:01.580Z,34.00
2019-05-18T21:08:33.015Z,33.20
2019-05-18T21:11:04.597Z,34.00
2019-05-18T21:13:37.156Z,32.40
2019-05-18T21:16:08.469Z,35.00
2019-05-18T21:18:41.498Z,32.20
2019-05-18T21:21:13.977Z,32.20
2019-05-18T21:23:45.619Z,33.80
2019-05-18T21:26:17.363Z,32.20
2019-05-18T21:28:59.168Z,32.20
2019-05-18T21:31:23.116Z,34.20
2019-05-18T21:33:55.911Z,35.00
2019-05-18T21:36:27.681Z,34.00
2019-05-18T21:38:59.231Z,35.20
2019-05-18T21:41:30.773Z,33.40
2019-05-18T21:44:02.301Z,34.20
2019-05-18T21:46:34.132Z,34.80
2019-05-18T21:49:05.584Z,33.60
2019-05-18T21:51:36.979Z,33.20
2019-05-18T21:54:08.536Z,34.40
2019-05-18T21:56:39.860Z,34.40
2019-05-18T21:59:12.555Z,34.20
2019-05-18T22:01:44.076Z,32.80
2019-05-18T22:04:15.829Z,32.80
2019-05-18T22:06:47.565Z,34.40
2019-05-18T22:09:18.909Z,33.60
2019-05-18T22:11:50.430Z,34.40
2019-05-18T22:14:21.783Z,33.20
2019-05-18T22:16:53.845Z,34.00
2019-05-18T22:19:25.296Z,32.80
2019-05-18T22:21:56.980Z,32.40
2019-05-18T22:24:29.535Z,31.60
2019-05-18T22:27:01.224Z,32.40
2019-05-18T22:29:32.484Z,32.20
2019-05-18T22:32:04.167Z,32.40
2019-05-18T22:34:37.677Z,31.00
2019-05-18T22:37:09.344Z,29.80
2019-05-18T22:39:40.690Z,30.40
2019-05-18T22:42:12.441Z,31.80
2019-05-18T22:44:43.932Z,32.40
2019-05-18T22:47:15.577Z,31.60
2019-05-18T22:49:47.199Z,29.80
2019-05-18T22:52:18.942Z,29.60
2019-05-18T22:54:50.466Z,29.40
2019-05-18T22:57:22.099Z,30.80
2019-05-18T22:59:53.888Z,29.40
2019-05-18T23:02:26.095Z,30.80
2019-05-18T23:04:57.959Z,31.40
2019-05-18T23:07:29.487Z,29.60
2019-05-18T23:10:01.216Z,31.20
2019-05-18T23:12:34.227Z,30.60
2019-05-18T23:15:06.333Z,32.60
2019-05-18T23:17:38.142Z,31.40
2019-05-18T23:20:09.901Z,29.60
2019-05-18T23:22:41.633Z,30.20
2019-05-18T23:25:13.783Z,31.00
2019-05-18T23:27:45.566Z,30.80
2019-05-18T23:30:17.136Z,28.60
2019-05-18T23:32:50.471Z,29.40
2019-05-18T23:35:22.897Z,28.20
2019-05-18T23:37:54.642Z,29.80
2019-05-18T23:40:26.412Z,30.20
2019-05-18T23:42:58.261Z,30.80
2019-05-18T23:45:29.846Z,29.40
2019-05-18T23:48:01.455Z,28.20
2019-05-18T23:50:33.205Z,29.80
2019-05-18T23:53:04.867Z,29.20
2019-05-18T23:55:37.994Z,28.00
2019-05-18T23:58:10.805Z,28.20
